sensor_id;sensor_type;location;lat;lon;timestamp;pressure;altitude;pressure_sealevel;temperature;humidity
61357;BME280;47227;46.752;23.576;2023-05-14T00:00:39;96871.80;;;8.59;74.28
61357;BME280;47227;46.752;23.576;2023-05-14T00:03:46;96869.33;;;8.60;73.44
61357;BME280;47227;46.752;23.576;2023-05-14T00:07:35;96863.61;;;8.63;73.35
61357;BME280;47227;46.752;23.576;2023-05-14T00:14:26;96862.08;;;8.67;74.67
61357;BME280;47227;46.752;23.576;2023-05-14T00:25:11;96865.08;;;8.66;74.43
61357;BME280;47227;46.752;23.576;2023-05-14T00:39:37;96859.14;;;8.30;73.64
61357;BME280;47227;46.752;23.576;2023-05-14T00:50:39;96850.90;;;8.03;74.25
61357;BME280;47227;46.752;23.576;2023-05-14T00:54:38;96846.41;;;7.93;73.95
61357;BME280;47227;46.752;23.576;2023-05-14T01:01:35;96842.32;;;7.80;74.21
61357;BME280;47227;46.752;23.576;2023-05-14T01:05:25;96846.16;;;7.72;74.27
61357;BME280;47227;46.752;23.576;2023-05-14T01:36:22;96837.30;;;7.65;75.03
61357;BME280;47227;46.752;23.576;2023-05-14T02:51:55;96830.43;;;6.56;76.90
61357;BME280;47227;46.752;23.576;2023-05-14T03:03:10;96819.38;;;6.72;76.83
61357;BME280;47227;46.752;23.576;2023-05-14T03:05:38;96817.95;;;6.82;76.41
61357;BME280;47227;46.752;23.576;2023-05-14T03:08:06;96814.14;;;6.90;76.66
61357;BME280;47227;46.752;23.576;2023-05-14T03:35:45;96821.87;;;7.36;76.19
61357;BME280;47227;46.752;23.576;2023-05-14T03:39:47;96822.45;;;7.35;76.27
61357;BME280;47227;46.752;23.576;2023-05-14T04:10:14;96826.27;;;7.40;75.35
61357;BME280;47227;46.752;23.576;2023-05-14T04:42:12;96835.84;;;8.10;72.99
61357;BME280;47227;46.752;23.576;2023-05-14T05:12:51;96810.17;;;10.03;68.37
61357;BME280;47227;46.752;23.576;2023-05-14T05:38:14;96787.96;;;11.23;63.43
61357;BME280;47227;46.752;23.576;2023-05-14T05:42:27;96786.55;;;11.43;63.46
61357;BME280;47227;46.752;23.576;2023-05-14T05:53:40;96781.52;;;11.77;62.63
61357;BME280;47227;46.752;23.576;2023-05-14T06:25:48;96778.17;;;12.74;61.43
61357;BME280;47227;46.752;23.576;2023-05-14T06:36:30;96771.86;;;13.14;57.20
61357;BME280;47227;46.752;23.576;2023-05-14T06:47:58;96773.98;;;13.49;54.31
61357;BME280;47227;46.752;23.576;2023-05-14T06:55:52;96770.11;;;13.51;52.98
61357;BME280;47227;46.752;23.576;2023-05-14T07:06:27;96758.59;;;13.55;52.80
61357;BME280;47227;46.752;23.576;2023-05-14T07:09:25;96756.40;;;13.68;53.55
61357;BME280;47227;46.752;23.576;2023-05-14T07:11:53;96753.45;;;13.76;53.01
61357;BME280;47227;46.752;23.576;2023-05-14T07:14:42;96752.09;;;13.88;53.86
61357;BME280;47227;46.752;23.576;2023-05-14T07:17:10;96750.30;;;14.03;53.80
61357;BME280;47227;46.752;23.576;2023-05-14T07:19:42;96745.83;;;14.17;52.82
61357;BME280;47227;46.752;23.576;2023-05-14T07:22:10;96741.80;;;14.25;51.53
61357;BME280;47227;46.752;23.576;2023-05-14T07:24:38;96740.18;;;14.32;51.64
61357;BME280;47227;46.752;23.576;2023-05-14T07:27:07;96738.14;;;14.39;51.30
61357;BME280;47227;46.752;23.576;2023-05-14T07:29:35;96740.49;;;14.48;51.02
61357;BME280;47227;46.752;23.576;2023-05-14T07:32:04;96739.89;;;14.52;50.68
61357;BME280;47227;46.752;23.576;2023-05-14T07:34:32;96744.45;;;14.64;51.00
61357;BME280;47227;46.752;23.576;2023-05-14T07:37:01;96741.52;;;14.74;50.02
61357;BME280;47227;46.752;23.576;2023-05-14T07:39:30;96742.32;;;14.80;49.19
61357;BME280;47227;46.752;23.576;2023-05-14T07:42:05;96740.65;;;14.91;49.38
61357;BME280;47227;46.752;23.576;2023-05-14T07:44:34;96743.98;;;15.04;49.50
61357;BME280;47227;46.752;23.576;2023-05-14T07:47:04;96746.88;;;15.17;49.32
61357;BME280;47227;46.752;23.576;2023-05-14T07:49:35;96751.59;;;15.32;49.25
61357;BME280;47227;46.752;23.576;2023-05-14T07:52:04;96745.55;;;15.35;46.85
61357;BME280;47227;46.752;23.576;2023-05-14T07:54:35;96745.92;;;15.36;46.51
61357;BME280;47227;46.752;23.576;2023-05-14T07:57:04;96745.23;;;15.37;46.56
61357;BME280;47227;46.752;23.576;2023-05-14T07:59:34;96744.55;;;15.38;46.76
61357;BME280;47227;46.752;23.576;2023-05-14T08:02:03;96741.10;;;15.44;47.19
61357;BME280;47227;46.752;23.576;2023-05-14T08:04:31;96738.41;;;15.52;46.87
61357;BME280;47227;46.752;23.576;2023-05-14T08:07:01;96737.70;;;15.56;46.40
61357;BME280;47227;46.752;23.576;2023-05-14T08:09:36;96735.85;;;15.67;47.23
61357;BME280;47227;46.752;23.576;2023-05-14T08:12:08;96729.95;;;15.82;46.98
61357;BME280;47227;46.752;23.576;2023-05-14T08:14:36;96728.54;;;15.95;46.44
61357;BME280;47227;46.752;23.576;2023-05-14T08:17:04;96728.39;;;16.08;46.25
61357;BME280;47227;46.752;23.576;2023-05-14T08:19:33;96718.45;;;16.18;46.10
61357;BME280;47227;46.752;23.576;2023-05-14T08:22:03;96716.45;;;16.34;46.31
61357;BME280;47227;46.752;23.576;2023-05-14T08:24:32;96714.73;;;16.50;46.08
61357;BME280;47227;46.752;23.576;2023-05-14T08:27:05;96706.81;;;16.63;45.37
61357;BME280;47227;46.752;23.576;2023-05-14T08:29:36;96702.48;;;16.71;43.78
61357;BME280;47227;46.752;23.576;2023-05-14T08:32:07;96695.83;;;16.73;43.33
61357;BME280;47227;46.752;23.576;2023-05-14T08:34:50;96697.58;;;16.84;43.70
61357;BME280;47227;46.752;23.576;2023-05-14T08:37:27;96701.38;;;17.07;45.02
61357;BME280;47227;46.752;23.576;2023-05-14T08:39:55;96701.63;;;17.37;45.19
61357;BME280;47227;46.752;23.576;2023-05-14T08:42:32;96701.25;;;17.60;44.48
61357;BME280;47227;46.752;23.576;2023-05-14T08:45:02;96706.02;;;17.76;43.14
61357;BME280;47227;46.752;23.576;2023-05-14T08:47:33;96701.34;;;17.83;41.60
61357;BME280;47227;46.752;23.576;2023-05-14T08:50:04;96695.70;;;17.79;41.27
61357;BME280;47227;46.752;23.576;2023-05-14T08:52:41;96692.41;;;17.89;41.44
61357;BME280;47227;46.752;23.576;2023-05-14T08:55:11;96686.98;;;17.96;41.15
61357;BME280;47227;46.752;23.576;2023-05-14T08:57:39;96682.41;;;18.08;41.65
61357;BME280;47227;46.752;23.576;2023-05-14T09:00:08;96680.84;;;18.15;40.90
61357;BME280;47227;46.752;23.576;2023-05-14T09:02:40;96680.13;;;18.33;41.72
61357;BME280;47227;46.752;23.576;2023-05-14T09:05:09;96684.44;;;18.48;40.61
61357;BME280;47227;46.752;23.576;2023-05-14T09:07:41;96685.77;;;18.41;39.00
61357;BME280;47227;46.752;23.576;2023-05-14T09:10:10;96674.50;;;18.36;39.36
61357;BME280;47227;46.752;23.576;2023-05-14T09:12:38;96670.52;;;18.47;40.62
61357;BME280;47227;46.752;23.576;2023-05-14T09:15:06;96672.14;;;18.68;41.15
61357;BME280;47227;46.752;23.576;2023-05-14T09:20:22;96665.83;;;19.09;41.40
61357;BME280;47227;46.752;23.576;2023-05-14T09:23:25;96665.70;;;19.28;41.21
61357;BME280;47227;46.752;23.576;2023-05-14T09:25:53;96662.66;;;19.46;41.05
61357;BME280;47227;46.752;23.576;2023-05-14T09:28:42;96658.83;;;19.60;40.60
61357;BME280;47227;46.752;23.576;2023-05-14T09:31:57;96654.08;;;19.76;40.21
61357;BME280;47227;46.752;23.576;2023-05-14T09:35:18;96658.77;;;19.84;39.66
61357;BME280;47227;46.752;23.576;2023-05-14T09:38:48;96658.30;;;19.86;39.55
61357;BME280;47227;46.752;23.576;2023-05-14T09:42:00;96666.04;;;19.93;39.63
61357;BME280;47227;46.752;23.576;2023-05-14T09:45:30;96662.98;;;19.92;39.10
61357;BME280;47227;46.752;23.576;2023-05-14T09:49:19;96653.66;;;19.92;39.15
61357;BME280;47227;46.752;23.576;2023-05-14T09:52:28;96650.80;;;20.04;39.50
61357;BME280;47227;46.752;23.576;2023-05-14T09:55:43;96653.06;;;20.08;38.55
61357;BME280;47227;46.752;23.576;2023-05-14T10:02:34;96648.36;;;19.91;37.99
61357;BME280;47227;46.752;23.576;2023-05-14T10:06:15;96641.45;;;19.93;38.82
61357;BME280;47227;46.752;23.576;2023-05-14T10:09:12;96636.39;;;20.06;39.37
61357;BME280;47227;46.752;23.576;2023-05-14T10:12:06;96631.13;;;20.07;38.15
61357;BME280;47227;46.752;23.576;2023-05-14T10:19:33;96616.83;;;20.35;37.82
61357;BME280;47227;46.752;23.576;2023-05-14T10:22:43;96608.49;;;20.58;37.20
61357;BME280;47227;46.752;23.576;2023-05-14T10:25:52;96604.83;;;20.66;37.33
61357;BME280;47227;46.752;23.576;2023-05-14T10:34:57;96592.28;;;20.39;37.84
61357;BME280;47227;46.752;23.576;2023-05-14T10:37:29;96593.23;;;20.35;37.52
61357;BME280;47227;46.752;23.576;2023-05-14T10:40:01;96590.59;;;20.15;36.92
61357;BME280;47227;46.752;23.576;2023-05-14T10:45:43;96588.41;;;19.98;36.92
61357;BME280;47227;46.752;23.576;2023-05-14T10:48:13;96582.20;;;19.82;37.65
61357;BME280;47227;46.752;23.576;2023-05-14T10:50:42;96580.58;;;19.86;38.17
61357;BME280;47227;46.752;23.576;2023-05-14T10:53:12;96577.36;;;19.89;38.29
61357;BME280;47227;46.752;23.576;2023-05-14T10:55:42;96575.34;;;19.89;38.49
61357;BME280;47227;46.752;23.576;2023-05-14T10:58:14;96572.35;;;19.94;38.89
61357;BME280;47227;46.752;23.576;2023-05-14T11:00:46;96567.15;;;19.96;38.71
61357;BME280;47227;46.752;23.576;2023-05-14T11:03:17;96561.02;;;19.84;37.96
61357;BME280;47227;46.752;23.576;2023-05-14T11:05:48;96557.73;;;19.79;38.54
61357;BME280;47227;46.752;23.576;2023-05-14T11:08:19;96561.36;;;19.78;38.74
61357;BME280;47227;46.752;23.576;2023-05-14T11:10:53;96560.23;;;19.70;37.66
61357;BME280;47227;46.752;23.576;2023-05-14T11:13:38;96556.03;;;19.52;37.64
61357;BME280;47227;46.752;23.576;2023-05-14T11:16:07;96551.80;;;19.37;37.84
61357;BME280;47227;46.752;23.576;2023-05-14T11:19:01;96554.02;;;19.33;38.39
61357;BME280;47227;46.752;23.576;2023-05-14T11:21:34;96551.23;;;19.31;38.02
61357;BME280;47227;46.752;23.576;2023-05-14T11:24:04;96552.56;;;19.20;37.64
61357;BME280;47227;46.752;23.576;2023-05-14T11:26:35;96547.23;;;19.15;38.23
61357;BME280;47227;46.752;23.576;2023-05-14T11:29:07;96548.36;;;19.11;38.36
61357;BME280;47227;46.752;23.576;2023-05-14T11:31:35;96541.15;;;19.08;38.44
61357;BME280;47227;46.752;23.576;2023-05-14T11:34:05;96536.30;;;19.08;38.46
61357;BME280;47227;46.752;23.576;2023-05-14T11:36:35;96536.11;;;19.07;38.62
61357;BME280;47227;46.752;23.576;2023-05-14T11:39:03;96538.70;;;18.99;38.79
61357;BME280;47227;46.752;23.576;2023-05-14T11:41:32;96537.84;;;18.94;38.72
61357;BME280;47227;46.752;23.576;2023-05-14T11:44:00;96535.55;;;18.86;38.41
61357;BME280;47227;46.752;23.576;2023-05-14T11:46:30;96531.58;;;18.78;38.53
61357;BME280;47227;46.752;23.576;2023-05-14T11:48:58;96530.66;;;18.76;38.99
61357;BME280;47227;46.752;23.576;2023-05-14T11:51:26;96527.45;;;18.72;39.15
61357;BME280;47227;46.752;23.576;2023-05-14T11:53:53;96524.67;;;18.68;38.87
61357;BME280;47227;46.752;23.576;2023-05-14T11:56:21;96526.89;;;18.63;38.01
61357;BME280;47227;46.752;23.576;2023-05-14T11:58:55;96525.59;;;18.51;36.70
61357;BME280;47227;46.752;23.576;2023-05-14T12:01:24;96526.19;;;18.44;36.48
61357;BME280;47227;46.752;23.576;2023-05-14T12:03:52;96525.66;;;18.34;36.59
61357;BME280;47227;46.752;23.576;2023-05-14T12:06:20;96520.54;;;18.22;36.67
61357;BME280;47227;46.752;23.576;2023-05-14T12:08:48;96518.48;;;18.11;36.80
61357;BME280;47227;46.752;23.576;2023-05-14T12:11:30;96516.65;;;18.02;36.97
61357;BME280;47227;46.752;23.576;2023-05-14T12:13:58;96514.78;;;17.96;37.82
61357;BME280;47227;46.752;23.576;2023-05-14T12:16:30;96513.80;;;17.83;38.55
61357;BME280;47227;46.752;23.576;2023-05-14T12:19:00;96512.35;;;17.72;39.03
61357;BME280;47227;46.752;23.576;2023-05-14T12:21:34;96513.23;;;17.62;40.01
61357;BME280;47227;46.752;23.576;2023-05-14T12:24:03;96512.65;;;17.56;40.45
61357;BME280;47227;46.752;23.576;2023-05-14T12:26:48;96511.67;;;17.46;41.37
61357;BME280;47227;46.752;23.576;2023-05-14T12:29:18;96513.60;;;17.37;41.93
61357;BME280;47227;46.752;23.576;2023-05-14T12:31:49;96512.55;;;17.28;41.84
61357;BME280;47227;46.752;23.576;2023-05-14T12:34:19;96513.83;;;17.23;42.16
61357;BME280;47227;46.752;23.576;2023-05-14T12:36:51;96512.30;;;17.17;42.43
61357;BME280;47227;46.752;23.576;2023-05-14T12:39:19;96512.44;;;17.14;42.45
61357;BME280;47227;46.752;23.576;2023-05-14T12:41:47;96512.61;;;17.12;42.77
61357;BME280;47227;46.752;23.576;2023-05-14T12:44:16;96508.13;;;17.11;42.52
61357;BME280;47227;46.752;23.576;2023-05-14T12:46:47;96507.73;;;17.10;42.58
61357;BME280;47227;46.752;23.576;2023-05-14T12:49:20;96502.54;;;17.10;42.60
61357;BME280;47227;46.752;23.576;2023-05-14T12:52:04;96495.53;;;17.09;43.02
61357;BME280;47227;46.752;23.576;2023-05-14T12:54:56;96496.70;;;17.10;43.28
61357;BME280;47227;46.752;23.576;2023-05-14T12:57:28;96505.60;;;17.01;43.90
61357;BME280;47227;46.752;23.576;2023-05-14T12:59:57;96510.34;;;16.98;44.01
61357;BME280;47227;46.752;23.576;2023-05-14T13:02:26;96512.08;;;16.90;44.62
61357;BME280;47227;46.752;23.576;2023-05-14T13:05:05;96511.95;;;16.75;45.90
61357;BME280;47227;46.752;23.576;2023-05-14T13:07:35;96512.19;;;16.60;45.86
61357;BME280;47227;46.752;23.576;2023-05-14T13:12:50;96506.91;;;16.26;47.39
61357;BME280;47227;46.752;23.576;2023-05-14T13:15:24;96509.00;;;16.10;47.62
61357;BME280;47227;46.752;23.576;2023-05-14T13:20:43;96501.34;;;15.79;49.62
61357;BME280;47227;46.752;23.576;2023-05-14T13:23:32;96492.19;;;15.68;49.56
61357;BME280;47227;46.752;23.576;2023-05-14T13:26:01;96489.81;;;15.56;50.97
61357;BME280;47227;46.752;23.576;2023-05-14T13:31:33;96481.96;;;15.42;51.84
61357;BME280;47227;46.752;23.576;2023-05-14T13:40:12;96459.05;;;15.37;52.90
61357;BME280;47227;46.752;23.576;2023-05-14T13:43:06;96453.84;;;15.43;51.93
61357;BME280;47227;46.752;23.576;2023-05-14T13:45:41;96453.55;;;15.47;52.00
61357;BME280;47227;46.752;23.576;2023-05-14T13:48:21;96450.23;;;15.54;51.95
61357;BME280;47227;46.752;23.576;2023-05-14T13:51:03;96441.48;;;15.63;52.18
61357;BME280;47227;46.752;23.576;2023-05-14T13:54:19;96433.48;;;15.71;52.48
61357;BME280;47227;46.752;23.576;2023-05-14T13:56:58;96430.04;;;15.80;52.43
61357;BME280;47227;46.752;23.576;2023-05-14T13:59:45;96422.45;;;15.84;52.90
61357;BME280;47227;46.752;23.576;2023-05-14T14:02:19;96414.77;;;15.97;53.10
61357;BME280;47227;46.752;23.576;2023-05-14T14:04:49;96414.67;;;16.07;53.29
61357;BME280;47227;46.752;23.576;2023-05-14T14:07:25;96410.29;;;16.13;52.54
61357;BME280;47227;46.752;23.576;2023-05-14T14:13:10;96384.45;;;16.34;51.81
61357;BME280;47227;46.752;23.576;2023-05-14T14:15:41;96381.20;;;16.51;51.99
61357;BME280;47227;46.752;23.576;2023-05-14T14:18:11;96383.65;;;16.64;51.64
61357;BME280;47227;46.752;23.576;2023-05-14T14:20:43;96380.13;;;16.71;51.40
61357;BME280;47227;46.752;23.576;2023-05-14T14:26:10;96380.27;;;16.76;50.47
61357;BME280;47227;46.752;23.576;2023-05-14T14:28:46;96365.66;;;16.82;50.33
61357;BME280;47227;46.752;23.576;2023-05-14T14:34:59;96367.36;;;16.95;49.73
61357;BME280;47227;46.752;23.576;2023-05-14T14:37:32;96369.52;;;16.95;49.07
61357;BME280;47227;46.752;23.576;2023-05-14T14:40:02;96371.80;;;16.87;49.19
61357;BME280;47227;46.752;23.576;2023-05-14T14:42:35;96371.32;;;16.78;49.25
61357;BME280;47227;46.752;23.576;2023-05-14T14:45:12;96372.55;;;16.70;48.38
61357;BME280;47227;46.752;23.576;2023-05-14T14:47:43;96372.52;;;16.60;48.46
61357;BME280;47227;46.752;23.576;2023-05-14T14:50:20;96374.46;;;16.52;49.11
61357;BME280;47227;46.752;23.576;2023-05-14T14:53:11;96375.48;;;16.45;48.86
61357;BME280;47227;46.752;23.576;2023-05-14T14:55:40;96377.51;;;16.40;48.69
61357;BME280;47227;46.752;23.576;2023-05-14T14:58:12;96378.98;;;16.36;48.70
61357;BME280;47227;46.752;23.576;2023-05-14T15:00:42;96380.48;;;16.30;48.92
61357;BME280;47227;46.752;23.576;2023-05-14T15:03:14;96383.38;;;16.21;49.16
61357;BME280;47227;46.752;23.576;2023-05-14T15:05:46;96384.09;;;16.13;49.00
61357;BME280;47227;46.752;23.576;2023-05-14T15:11:08;96372.98;;;16.07;49.72
61357;BME280;47227;46.752;23.576;2023-05-14T15:13:37;96362.33;;;16.04;50.35
61357;BME280;47227;46.752;23.576;2023-05-14T15:16:11;96346.10;;;16.03;50.23
61357;BME280;47227;46.752;23.576;2023-05-14T15:18:46;96330.56;;;16.05;50.03
61357;BME280;47227;46.752;23.576;2023-05-14T15:21:44;96330.10;;;16.13;49.84
61357;BME280;47227;46.752;23.576;2023-05-14T15:24:12;96329.19;;;16.19;49.54
61357;BME280;47227;46.752;23.576;2023-05-14T15:26:40;96327.05;;;16.21;48.74
61357;BME280;47227;46.752;23.576;2023-05-14T15:29:44;96336.83;;;16.24;49.00
61357;BME280;47227;46.752;23.576;2023-05-14T15:33:32;96338.59;;;16.27;49.02
61357;BME280;47227;46.752;23.576;2023-05-14T15:36:31;96334.02;;;16.28;48.40
61357;BME280;47227;46.752;23.576;2023-05-14T15:39:34;96328.13;;;16.30;48.39
61357;BME280;47227;46.752;23.576;2023-05-14T15:43:18;96312.59;;;16.36;49.00
61357;BME280;47227;46.752;23.576;2023-05-14T15:46:48;96308.19;;;16.46;48.95
61357;BME280;47227;46.752;23.576;2023-05-14T15:50:23;96324.16;;;16.51;49.08
61357;BME280;47227;46.752;23.576;2023-05-14T15:56:47;96319.63;;;16.51;49.50
61357;BME280;47227;46.752;23.576;2023-05-14T16:00:16;96304.55;;;16.45;50.13
61357;BME280;47227;46.752;23.576;2023-05-14T16:03:51;96292.77;;;16.38;50.55
61357;BME280;47227;46.752;23.576;2023-05-14T16:06:47;96293.20;;;16.37;50.21
61357;BME280;47227;46.752;23.576;2023-05-14T16:13:31;96311.08;;;16.27;49.55
61357;BME280;47227;46.752;23.576;2023-05-14T16:16:59;96313.42;;;16.19;49.19
61357;BME280;47227;46.752;23.576;2023-05-14T16:20:33;96312.89;;;16.13;48.59
61357;BME280;47227;46.752;23.576;2023-05-14T16:24:21;96312.96;;;16.09;48.82
61357;BME280;47227;46.752;23.576;2023-05-14T16:27:15;96307.59;;;16.01;49.00
61357;BME280;47227;46.752;23.576;2023-05-14T16:30:44;96307.27;;;15.94;49.07
61357;BME280;47227;46.752;23.576;2023-05-14T16:34:29;96304.44;;;15.87;49.15
61357;BME280;47227;46.752;23.576;2023-05-14T16:37:18;96307.49;;;15.83;49.22
61357;BME280;47227;46.752;23.576;2023-05-14T16:43:47;96305.38;;;15.71;49.46
61357;BME280;47227;46.752;23.576;2023-05-14T16:46:41;96317.89;;;15.68;49.58
61357;BME280;47227;46.752;23.576;2023-05-14T16:49:28;96318.38;;;15.65;49.47
61357;BME280;47227;46.752;23.576;2023-05-14T16:51:56;96320.34;;;15.64;49.67
61357;BME280;47227;46.752;23.576;2023-05-14T16:54:25;96323.15;;;15.63;49.60
61357;BME280;47227;46.752;23.576;2023-05-14T16:56:54;96323.85;;;15.62;49.53
61357;BME280;47227;46.752;23.576;2023-05-14T16:59:22;96315.77;;;15.60;49.71
61357;BME280;47227;46.752;23.576;2023-05-14T17:01:54;96310.08;;;15.58;49.67
61357;BME280;47227;46.752;23.576;2023-05-14T17:04:22;96312.20;;;15.56;49.80
61357;BME280;47227;46.752;23.576;2023-05-14T17:06:53;96311.08;;;15.53;49.67
61357;BME280;47227;46.752;23.576;2023-05-14T17:09:21;96306.55;;;15.51;49.48
61357;BME280;47227;46.752;23.576;2023-05-14T17:11:49;96302.70;;;15.49;49.64
61357;BME280;47227;46.752;23.576;2023-05-14T17:14:17;96302.61;;;15.47;49.97
61357;BME280;47227;46.752;23.576;2023-05-14T17:16:45;96297.87;;;15.45;49.62
61357;BME280;47227;46.752;23.576;2023-05-14T17:19:13;96303.98;;;15.42;49.80
61357;BME280;47227;46.752;23.576;2023-05-14T17:21:41;96305.63;;;15.40;49.91
61357;BME280;47227;46.752;23.576;2023-05-14T17:24:09;96306.75;;;15.39;49.87
61357;BME280;47227;46.752;23.576;2023-05-14T17:26:37;96300.27;;;15.36;49.80
61357;BME280;47227;46.752;23.576;2023-05-14T17:29:05;96290.45;;;15.35;49.43
61357;BME280;47227;46.752;23.576;2023-05-14T17:31:33;96283.74;;;15.33;49.15
61357;BME280;47227;46.752;23.576;2023-05-14T17:34:01;96283.23;;;15.32;49.14
61357;BME280;47227;46.752;23.576;2023-05-14T17:36:28;96281.40;;;15.30;49.17
61357;BME280;47227;46.752;23.576;2023-05-14T17:38:58;96277.52;;;15.28;48.87
61357;BME280;47227;46.752;23.576;2023-05-14T17:41:25;96278.65;;;15.24;48.63
61357;BME280;47227;46.752;23.576;2023-05-14T17:43:53;96281.41;;;15.22;48.68
61357;BME280;47227;46.752;23.576;2023-05-14T17:46:22;96273.49;;;15.19;48.65
61357;BME280;47227;46.752;23.576;2023-05-14T17:48:50;96263.81;;;15.15;48.38
61357;BME280;47227;46.752;23.576;2023-05-14T17:51:18;96264.79;;;15.11;48.63
61357;BME280;47227;46.752;23.576;2023-05-14T17:53:45;96274.75;;;15.08;48.65
61357;BME280;47227;46.752;23.576;2023-05-14T17:56:13;96286.23;;;15.06;48.68
61357;BME280;47227;46.752;23.576;2023-05-14T17:58:44;96290.52;;;15.03;48.38
61357;BME280;47227;46.752;23.576;2023-05-14T18:01:12;96295.04;;;15.01;48.20
61357;BME280;47227;46.752;23.576;2023-05-14T18:03:40;96293.36;;;14.98;48.16
61357;BME280;47227;46.752;23.576;2023-05-14T18:06:09;96294.27;;;14.96;47.94
61357;BME280;47227;46.752;23.576;2023-05-14T18:08:37;96297.29;;;14.95;47.88
61357;BME280;47227;46.752;23.576;2023-05-14T18:11:05;96289.86;;;14.93;47.29
61357;BME280;47227;46.752;23.576;2023-05-14T18:13:32;96293.46;;;14.91;46.96
61357;BME280;47227;46.752;23.576;2023-05-14T18:16:00;96293.52;;;14.89;47.05
61357;BME280;47227;46.752;23.576;2023-05-14T18:18:29;96293.15;;;14.89;46.70
61357;BME280;47227;46.752;23.576;2023-05-14T18:20:58;96293.42;;;14.87;46.33
61357;BME280;47227;46.752;23.576;2023-05-14T18:23:26;96291.85;;;14.87;46.51
61357;BME280;47227;46.752;23.576;2023-05-14T18:25:56;96289.73;;;14.86;46.24
61357;BME280;47227;46.752;23.576;2023-05-14T18:28:24;96284.16;;;14.85;46.32
61357;BME280;47227;46.752;23.576;2023-05-14T18:30:53;96291.55;;;14.84;46.28
61357;BME280;47227;46.752;23.576;2023-05-14T18:33:20;96291.52;;;14.83;46.32
61357;BME280;47227;46.752;23.576;2023-05-14T18:35:48;96293.15;;;14.82;46.54
61357;BME280;47227;46.752;23.576;2023-05-14T18:38:16;96297.44;;;14.79;46.52
61357;BME280;47227;46.752;23.576;2023-05-14T18:40:48;96298.83;;;14.78;46.45
61357;BME280;47227;46.752;23.576;2023-05-14T18:43:16;96301.63;;;14.76;46.50
61357;BME280;47227;46.752;23.576;2023-05-14T18:45:45;96303.77;;;14.74;46.43
61357;BME280;47227;46.752;23.576;2023-05-14T18:48:14;96299.59;;;14.71;46.50
61357;BME280;47227;46.752;23.576;2023-05-14T18:50:43;96292.23;;;14.68;46.49
61357;BME280;47227;46.752;23.576;2023-05-14T18:53:10;96282.77;;;14.67;46.55
61357;BME280;47227;46.752;23.576;2023-05-14T18:55:38;96276.02;;;14.65;46.54
61357;BME280;47227;46.752;23.576;2023-05-14T18:58:06;96276.20;;;14.63;46.54
61357;BME280;47227;46.752;23.576;2023-05-14T19:00:34;96277.27;;;14.62;46.57
61357;BME280;47227;46.752;23.576;2023-05-14T19:03:02;96282.38;;;14.61;46.74
61357;BME280;47227;46.752;23.576;2023-05-14T19:05:30;96281.34;;;14.59;46.40
61357;BME280;47227;46.752;23.576;2023-05-14T19:07:58;96283.63;;;14.58;46.86
61357;BME280;47227;46.752;23.576;2023-05-14T19:10:27;96279.83;;;14.56;46.77
61357;BME280;47227;46.752;23.576;2023-05-14T19:12:55;96275.92;;;14.54;46.94
61357;BME280;47227;46.752;23.576;2023-05-14T19:15:24;96271.75;;;14.52;47.12
61357;BME280;47227;46.752;23.576;2023-05-14T19:17:52;96267.48;;;14.47;47.32
61357;BME280;47227;46.752;23.576;2023-05-14T19:20:20;96266.13;;;14.43;47.42
61357;BME280;47227;46.752;23.576;2023-05-14T19:22:49;96260.39;;;14.41;47.20
61357;BME280;47227;46.752;23.576;2023-05-14T19:25:16;96260.56;;;14.38;47.27
61357;BME280;47227;46.752;23.576;2023-05-14T19:27:44;96259.41;;;14.35;47.24
61357;BME280;47227;46.752;23.576;2023-05-14T19:30:18;96261.21;;;14.34;47.37
61357;BME280;47227;46.752;23.576;2023-05-14T19:32:46;96262.27;;;14.33;47.51
61357;BME280;47227;46.752;23.576;2023-05-14T19:35:14;96261.70;;;14.32;47.53
61357;BME280;47227;46.752;23.576;2023-05-14T19:37:42;96258.45;;;14.30;47.66
61357;BME280;47227;46.752;23.576;2023-05-14T19:40:10;96256.02;;;14.28;47.72
61357;BME280;47227;46.752;23.576;2023-05-14T19:42:38;96245.97;;;14.24;48.02
61357;BME280;47227;46.752;23.576;2023-05-14T19:45:06;96242.17;;;14.20;48.03
61357;BME280;47227;46.752;23.576;2023-05-14T19:47:34;96244.57;;;14.17;48.03
61357;BME280;47227;46.752;23.576;2023-05-14T19:50:02;96245.32;;;14.14;48.37
61357;BME280;47227;46.752;23.576;2023-05-14T19:52:29;96249.61;;;14.10;48.51
61357;BME280;47227;46.752;23.576;2023-05-14T19:54:57;96253.30;;;14.07;48.65
61357;BME280;47227;46.752;23.576;2023-05-14T19:57:25;96257.59;;;14.04;48.78
61357;BME280;47227;46.752;23.576;2023-05-14T19:59:53;96249.89;;;14.03;48.74
61357;BME280;47227;46.752;23.576;2023-05-14T20:02:21;96243.35;;;14.02;48.89
61357;BME280;47227;46.752;23.576;2023-05-14T20:04:49;96230.92;;;14.00;48.71
61357;BME280;47227;46.752;23.576;2023-05-14T20:07:18;96224.70;;;13.99;48.89
61357;BME280;47227;46.752;23.576;2023-05-14T20:09:46;96228.14;;;13.97;48.94
61357;BME280;47227;46.752;23.576;2023-05-14T20:12:14;96225.98;;;13.95;49.01
61357;BME280;47227;46.752;23.576;2023-05-14T20:14:43;96220.81;;;13.92;49.35
61357;BME280;47227;46.752;23.576;2023-05-14T20:17:11;96219.52;;;13.89;49.55
61357;BME280;47227;46.752;23.576;2023-05-14T20:19:39;96214.04;;;13.86;49.53
61357;BME280;47227;46.752;23.576;2023-05-14T20:22:07;96206.98;;;13.84;49.75
61357;BME280;47227;46.752;23.576;2023-05-14T20:24:35;96204.30;;;13.80;50.02
61357;BME280;47227;46.752;23.576;2023-05-14T20:27:06;96202.48;;;13.77;49.96
61357;BME280;47227;46.752;23.576;2023-05-14T20:29:34;96198.01;;;13.76;49.92
61357;BME280;47227;46.752;23.576;2023-05-14T20:32:02;96194.46;;;13.74;49.98
61357;BME280;47227;46.752;23.576;2023-05-14T20:34:30;96190.63;;;13.73;50.05